createdAt,value
2018-11-03T00:00:42.559Z,7.80
2018-11-03T00:03:10.170Z,7.80
2018-11-03T00:05:37.801Z,7.80
2018-11-03T00:08:06.910Z,7.80
2018-11-03T00:10:34.770Z,7.80
2018-11-03T00:13:02.333Z,7.90
2018-11-03T00:15:29.916Z,7.90
2018-11-03T00:17:57.547Z,7.90
2018-11-03T00:20:26.968Z,8.00
2018-11-03T00:22:56.200Z,7.90
2018-11-03T00:25:24.336Z,8.00
2018-11-03T00:27:52.068Z,8.00
2018-11-03T00:30:19.716Z,7.90
2018-11-03T00:32:47.333Z,7.90
2018-11-03T00:35:14.966Z,7.90
2018-11-03T00:37:42.550Z,7.90
2018-11-03T00:40:12.378Z,7.90
2018-11-03T00:42:40.060Z,7.90
2018-11-03T00:45:09.951Z,7.80
2018-11-03T00:47:39.177Z,7.80
2018-11-03T00:50:07.755Z,7.80
2018-11-03T00:52:35.367Z,7.80
2018-11-03T00:55:02.915Z,7.80
2018-11-03T00:57:30.582Z,7.80
2018-11-03T00:59:59.210Z,7.70
2018-11-03T01:02:26.768Z,7.60
2018-11-03T01:04:54.273Z,7.60
2018-11-03T01:07:21.907Z,7.50
2018-11-03T01:09:49.464Z,7.40
2018-11-03T01:12:16.966Z,7.30
2018-11-03T01:14:44.556Z,7.20
2018-11-03T01:17:12.088Z,7.10
2018-11-03T01:19:40.599Z,7.00
2018-11-03T01:22:08.108Z,7.00
2018-11-03T01:24:35.704Z,6.90
2018-11-03T01:27:03.296Z,6.80
2018-11-03T01:29:30.976Z,6.70
2018-11-03T01:31:58.835Z,6.60
2018-11-03T01:34:26.422Z,6.50
2018-11-03T01:36:54.029Z,6.40
2018-11-03T01:39:21.565Z,6.40
2018-11-03T01:41:49.098Z,6.30
2018-11-03T01:44:16.709Z,6.30
2018-11-03T01:46:44.204Z,6.30
2018-11-03T01:49:13.198Z,6.20
2018-11-03T01:51:40.727Z,6.20
2018-11-03T01:54:08.220Z,6.10
2018-11-03T01:56:35.759Z,6.10
2018-11-03T01:59:03.288Z,6.00
2018-11-03T02:01:30.823Z,5.90
2018-11-03T02:03:58.427Z,5.80
2018-11-03T02:06:25.943Z,5.70
2018-11-03T02:08:53.518Z,5.70
2018-11-03T02:11:21.027Z,5.60
2018-11-03T02:13:48.524Z,5.40
2018-11-03T02:16:16.062Z,5.30
2018-11-03T02:18:43.550Z,5.30
2018-11-03T02:21:11.100Z,5.20
2018-11-03T02:23:38.629Z,5.10
2018-11-03T02:26:06.195Z,5.00
2018-11-03T02:28:33.830Z,4.90
2018-11-03T02:31:01.323Z,4.90
2018-11-03T02:33:28.871Z,4.90
2018-11-03T02:35:56.385Z,4.80
2018-11-03T02:38:23.958Z,4.80
2018-11-03T02:40:52.607Z,4.80
2018-11-03T02:43:20.141Z,4.70
2018-11-03T02:45:47.694Z,4.70
2018-11-03T02:48:15.320Z,4.70
2018-11-03T02:50:42.878Z,4.60
2018-11-03T02:53:10.386Z,4.60
2018-11-03T02:55:37.892Z,4.60
2018-11-03T02:58:05.845Z,4.60
2018-11-03T03:00:33.443Z,4.60
2018-11-03T03:03:01.034Z,4.60
2018-11-03T03:05:28.556Z,4.50
2018-11-03T03:07:56.114Z,4.50
2018-11-03T03:10:23.620Z,4.40
2018-11-03T03:12:51.173Z,4.30
2018-11-03T03:15:18.774Z,4.30
2018-11-03T03:17:46.303Z,4.20
2018-11-03T03:20:13.875Z,4.10
2018-11-03T03:22:41.566Z,4.00
2018-11-03T03:25:10.020Z,4.00
2018-11-03T03:27:37.625Z,3.90
2018-11-03T03:30:05.448Z,3.90
2018-11-03T03:32:33.050Z,3.80
2018-11-03T03:35:00.534Z,3.80
2018-11-03T03:37:28.084Z,3.70
2018-11-03T03:39:55.573Z,3.70
2018-11-03T03:42:23.097Z,3.70
2018-11-03T03:44:50.659Z,3.60
2018-11-03T03:47:18.202Z,3.60
2018-11-03T03:49:45.734Z,3.50
2018-11-03T03:52:13.255Z,3.50
2018-11-03T03:54:40.850Z,3.40
2018-11-03T03:57:08.394Z,3.40
2018-11-03T03:59:36.011Z,3.30
2018-11-03T04:02:03.576Z,3.40
2018-11-03T04:04:31.131Z,3.30
2018-11-03T04:06:58.655Z,3.30
2018-11-03T04:09:26.223Z,3.30
2018-11-03T04:11:53.779Z,3.20
2018-11-03T04:14:21.281Z,3.20
2018-11-03T04:16:48.781Z,3.20
2018-11-03T04:19:16.464Z,3.20
2018-11-03T04:21:43.965Z,3.20
2018-11-03T04:24:11.458Z,3.10
2018-11-03T04:26:38.947Z,3.10
2018-11-03T04:29:06.844Z,3.10
2018-11-03T04:31:34.526Z,3.00
2018-11-03T04:34:03.184Z,3.00
2018-11-03T04:36:30.770Z,2.90
2018-11-03T04:38:58.286Z,2.90
2018-11-03T04:41:25.807Z,2.90
2018-11-03T04:43:53.413Z,2.80
2018-11-03T04:46:20.912Z,2.80
2018-11-03T04:48:52.788Z,2.80
2018-11-03T04:51:20.277Z,2.70
2018-11-03T04:53:47.887Z,2.70
2018-11-03T04:56:15.449Z,2.70
2018-11-03T04:58:42.965Z,2.70
2018-11-03T05:01:10.462Z,2.60
2018-11-03T05:03:37.977Z,2.60
2018-11-03T05:06:05.517Z,2.60
2018-11-03T05:08:33.094Z,2.50
2018-11-03T05:11:00.599Z,2.50
2018-11-03T05:13:28.125Z,2.50
2018-11-03T05:15:56.723Z,2.40
2018-11-03T05:18:24.317Z,2.40
2018-11-03T05:20:51.861Z,2.40
2018-11-03T05:23:19.384Z,2.30
2018-11-03T05:25:46.956Z,2.30
2018-11-03T05:28:14.480Z,2.20
2018-11-03T05:30:41.972Z,2.20
2018-11-03T05:33:09.560Z,2.20
2018-11-03T05:35:37.085Z,2.10
2018-11-03T05:38:04.930Z,2.10
2018-11-03T05:40:32.384Z,2.10
2018-11-03T05:42:59.902Z,2.00
2018-11-03T05:45:27.471Z,1.90
2018-11-03T05:47:54.997Z,1.90
2018-11-03T05:50:22.526Z,1.90
2018-11-03T05:52:50.032Z,1.80
2018-11-03T05:55:17.532Z,1.80
2018-11-03T05:57:45.042Z,1.80
2018-11-03T06:00:12.751Z,1.70
2018-11-03T06:02:40.289Z,1.70
2018-11-03T06:05:07.845Z,1.70
2018-11-03T06:07:35.364Z,1.70
2018-11-03T06:10:03.160Z,1.70
2018-11-03T06:12:30.851Z,1.60
2018-11-03T06:14:58.421Z,1.60
2018-11-03T06:17:25.954Z,1.60
2018-11-03T06:19:53.463Z,1.50
2018-11-03T06:22:21.072Z,1.40
2018-11-03T06:24:48.549Z,1.50
2018-11-03T06:27:16.119Z,1.40
2018-11-03T06:29:43.634Z,1.50
2018-11-03T06:32:15.449Z,1.50
2018-11-03T06:34:42.941Z,1.40
2018-11-03T06:37:10.508Z,1.50
2018-11-03T06:39:38.051Z,1.50
2018-11-03T06:42:05.892Z,1.40
2018-11-03T06:44:33.414Z,1.40
2018-11-03T06:47:00.983Z,1.40
2018-11-03T06:49:28.489Z,1.40
2018-11-03T06:51:56.075Z,1.30
2018-11-03T06:54:23.567Z,1.30
2018-11-03T06:56:51.965Z,1.30
2018-11-03T06:59:19.566Z,1.30
2018-11-03T07:01:47.154Z,1.30
2018-11-03T07:04:15.267Z,1.30
2018-11-03T07:06:42.745Z,1.40
2018-11-03T07:09:11.580Z,1.40
2018-11-03T07:11:39.620Z,1.40
2018-11-03T07:14:07.321Z,1.50
2018-11-03T07:16:35.198Z,1.50
2018-11-03T07:19:02.729Z,1.60
2018-11-03T07:21:30.605Z,1.60
2018-11-03T07:23:58.073Z,1.70
2018-11-03T07:26:25.655Z,1.70
2018-11-03T07:28:53.414Z,1.80
2018-11-03T07:31:20.959Z,1.80
2018-11-03T07:33:48.472Z,1.90
2018-11-03T07:36:16.202Z,2.00
2018-11-03T07:38:43.726Z,2.00
2018-11-03T07:41:11.253Z,2.10
2018-11-03T07:43:38.829Z,2.10
2018-11-03T07:46:06.427Z,2.30
2018-11-03T07:48:34.151Z,2.30
2018-11-03T07:51:01.588Z,2.40
2018-11-03T07:53:29.155Z,2.50
2018-11-03T07:55:57.696Z,2.60
2018-11-03T07:58:25.251Z,2.70
2018-11-03T08:00:52.858Z,2.80
2018-11-03T08:03:20.400Z,2.90
2018-11-03T08:05:48.006Z,3.00
2018-11-03T08:08:15.654Z,3.10
2018-11-03T08:10:43.181Z,3.20
2018-11-03T08:13:10.749Z,3.30
2018-11-03T08:15:38.353Z,3.40
2018-11-03T08:18:05.981Z,3.60
2018-11-03T08:20:33.483Z,3.70
2018-11-03T08:23:01.968Z,3.80
2018-11-03T08:25:29.477Z,4.00
2018-11-03T08:27:57.312Z,4.10
2018-11-03T08:30:24.843Z,4.30
2018-11-03T08:32:52.348Z,4.40
2018-11-03T08:35:19.941Z,4.60
2018-11-03T08:37:47.540Z,4.70
2018-11-03T08:40:15.090Z,4.80
2018-11-03T08:42:42.587Z,5.00
2018-11-03T08:45:10.660Z,5.10
2018-11-03T08:47:38.185Z,5.30
2018-11-03T08:50:07.211Z,5.40
2018-11-03T08:52:34.812Z,5.60
2018-11-03T08:55:02.470Z,5.70
2018-11-03T08:57:29.970Z,5.90
2018-11-03T08:59:57.678Z,6.10
2018-11-03T09:02:25.153Z,6.20
2018-11-03T09:04:52.663Z,6.40
2018-11-03T09:07:20.169Z,6.60
2018-11-03T09:09:47.751Z,6.70
2018-11-03T09:12:15.324Z,6.80
2018-11-03T09:14:42.948Z,7.00
2018-11-03T09:17:12.471Z,7.10
2018-11-03T09:19:39.948Z,7.20
2018-11-03T09:22:07.469Z,7.30
2018-11-03T09:24:35.091Z,7.50
2018-11-03T09:27:02.564Z,7.50
2018-11-03T09:29:30.161Z,7.50
2018-11-03T09:31:57.707Z,7.70
2018-11-03T09:34:25.362Z,7.80
2018-11-03T09:36:52.858Z,7.90
2018-11-03T09:39:20.516Z,8.00
2018-11-03T09:41:48.045Z,8.00
2018-11-03T09:44:15.588Z,8.10
2018-11-03T09:46:43.158Z,8.20
2018-11-03T09:49:10.810Z,8.20
2018-11-03T09:51:38.288Z,8.20
2018-11-03T09:54:05.891Z,8.20
2018-11-03T09:56:33.529Z,8.30
2018-11-03T09:59:01.076Z,8.40
2018-11-03T10:01:28.613Z,8.30
2018-11-03T10:03:56.202Z,8.40
2018-11-03T10:06:23.786Z,8.50
2018-11-03T10:08:51.348Z,8.60
2018-11-03T10:11:18.970Z,8.70
2018-11-03T10:13:47.515Z,8.70
2018-11-03T10:16:15.247Z,8.70
2018-11-03T10:18:42.969Z,8.80
2018-11-03T10:21:10.517Z,8.90
2018-11-03T10:23:38.049Z,9.00
2018-11-03T10:26:05.653Z,9.20
2018-11-03T10:28:33.203Z,9.20
2018-11-03T10:31:00.785Z,9.30
2018-11-03T10:33:28.367Z,9.40
2018-11-03T10:35:55.901Z,9.40
2018-11-03T10:38:23.400Z,9.30
2018-11-03T10:40:51.046Z,9.40
2018-11-03T10:43:18.555Z,9.40
2018-11-03T10:45:46.069Z,9.50
2018-11-03T10:48:13.798Z,9.50
2018-11-03T10:50:41.355Z,9.50
2018-11-03T10:54:12.265Z,9.70
2018-11-03T10:56:39.857Z,9.80
2018-11-03T10:59:07.364Z,9.90
2018-11-03T11:01:40.388Z,9.90
2018-11-03T11:04:13.520Z,10.00
2018-11-03T11:06:46.781Z,10.20
2018-11-03T11:09:19.903Z,10.30
2018-11-03T11:11:53.008Z,10.30
2018-11-03T11:14:20.637Z,10.30
2018-11-03T11:16:48.193Z,10.50
2018-11-03T11:19:15.682Z,10.50
2018-11-03T11:21:43.285Z,10.50
2018-11-03T11:24:11.109Z,10.40
2018-11-03T11:26:38.428Z,10.40
2018-11-03T11:29:06.100Z,10.50
2018-11-03T11:31:33.699Z,10.50
2018-11-03T11:34:01.508Z,10.50
2018-11-03T11:36:29.149Z,10.60
2018-11-03T11:38:56.734Z,10.70
2018-11-03T11:41:24.276Z,10.70
2018-11-03T11:43:51.897Z,10.80
2018-11-03T11:46:19.483Z,10.70
2018-11-03T11:48:46.980Z,10.70
2018-11-03T11:51:14.554Z,10.60
2018-11-03T11:53:42.141Z,10.40
2018-11-03T11:56:09.755Z,10.60
2018-11-03T11:58:37.273Z,10.90
2018-11-03T12:01:04.913Z,11.00
2018-11-03T12:03:32.553Z,11.10
2018-11-03T12:06:00.070Z,11.30
2018-11-03T12:08:27.618Z,11.40
2018-11-03T12:10:55.153Z,12.00
2018-11-03T12:13:22.675Z,13.20
2018-11-03T12:15:51.247Z,14.70
2018-11-03T12:18:18.733Z,16.40
2018-11-03T12:20:46.290Z,17.90
2018-11-03T12:23:13.865Z,19.20
2018-11-03T12:25:41.459Z,20.80
2018-11-03T12:28:08.952Z,21.70
2018-11-03T12:30:36.475Z,22.30
2018-11-03T12:33:04.537Z,23.20
2018-11-03T12:35:32.107Z,23.80
2018-11-03T12:37:59.589Z,24.40
2018-11-03T12:40:27.173Z,24.70
2018-11-03T12:42:54.706Z,25.30
2018-11-03T12:45:22.205Z,26.00
2018-11-03T12:47:49.725Z,26.10
2018-11-03T12:50:17.611Z,25.70
2018-11-03T12:52:45.228Z,25.10
2018-11-03T12:55:13.093Z,24.60
2018-11-03T12:58:44.168Z,25.00
2018-11-03T13:01:11.725Z,24.90
2018-11-03T13:03:39.401Z,25.50
2018-11-03T13:06:07.051Z,25.70
2018-11-03T13:08:34.662Z,25.20
2018-11-03T13:11:02.330Z,25.20
2018-11-03T13:13:29.855Z,25.10
2018-11-03T13:15:57.333Z,25.60
2018-11-03T13:18:24.910Z,25.60
2018-11-03T13:20:52.522Z,25.00
2018-11-03T13:23:20.041Z,25.10
2018-11-03T13:25:47.599Z,24.70
2018-11-03T13:28:15.088Z,24.00
2018-11-03T13:30:42.616Z,23.50
2018-11-03T13:33:10.166Z,23.00
2018-11-03T13:35:37.670Z,23.40
2018-11-03T13:38:05.293Z,23.10
2018-11-03T13:40:32.858Z,22.80
2018-11-03T13:43:00.450Z,23.40
2018-11-03T13:45:27.952Z,23.80
2018-11-03T13:47:55.682Z,23.80
2018-11-03T13:50:23.165Z,23.80
2018-11-03T13:52:50.681Z,24.00
2018-11-03T13:55:18.314Z,23.80
2018-11-03T13:57:46.327Z,23.80
2018-11-03T14:00:16.199Z,23.60
2018-11-03T14:02:44.469Z,22.90
2018-11-03T14:05:11.995Z,22.40
2018-11-03T14:07:39.590Z,22.50
2018-11-03T14:10:10.692Z,22.20
2018-11-03T14:12:38.190Z,22.60
2018-11-03T14:15:06.655Z,22.90
2018-11-03T14:17:34.184Z,23.30
2018-11-03T14:20:01.716Z,23.50
2018-11-03T14:22:29.264Z,23.80
2018-11-03T14:24:56.755Z,23.50
2018-11-03T14:27:24.317Z,23.80
2018-11-03T14:29:51.779Z,24.00
2018-11-03T14:32:19.281Z,23.70
2018-11-03T14:34:46.778Z,23.20
2018-11-03T14:37:14.255Z,22.90
2018-11-03T14:39:41.759Z,22.80
2018-11-03T14:42:09.335Z,21.70
2018-11-03T14:44:37.049Z,22.00
2018-11-03T14:47:04.697Z,21.80
2018-11-03T14:49:33.217Z,21.50
2018-11-03T14:52:00.675Z,21.10
2018-11-03T14:54:28.324Z,20.70
2018-11-03T14:56:55.778Z,20.60
2018-11-03T14:59:23.334Z,20.60
2018-11-03T15:01:50.881Z,20.40
2018-11-03T15:04:18.394Z,20.20
2018-11-03T15:06:45.951Z,20.10
2018-11-03T15:09:13.550Z,20.10
2018-11-03T15:11:42.065Z,20.00
2018-11-03T15:14:09.827Z,19.80
2018-11-03T15:16:37.852Z,19.20
2018-11-03T15:19:06.365Z,18.50
2018-11-03T15:21:33.918Z,17.40
2018-11-03T15:24:01.506Z,16.20
2018-11-03T15:26:29.202Z,15.30
2018-11-03T15:28:56.735Z,14.50
2018-11-03T15:31:24.365Z,13.90
2018-11-03T15:33:52.062Z,13.40
2018-11-03T15:36:19.612Z,13.00
2018-11-03T15:38:47.197Z,12.60
2018-11-03T15:41:14.743Z,12.30
2018-11-03T15:43:42.427Z,12.00
2018-11-03T15:46:10.038Z,11.60
2018-11-03T15:48:37.675Z,11.40
2018-11-03T15:51:05.333Z,11.10
2018-11-03T15:53:32.898Z,10.90
2018-11-03T15:56:00.539Z,10.70
2018-11-03T15:58:28.081Z,10.40
2018-11-03T16:00:55.662Z,10.20
2018-11-03T16:03:23.122Z,10.00
2018-11-03T16:05:50.764Z,9.70
2018-11-03T16:08:18.301Z,9.50
2018-11-03T16:10:45.837Z,9.30
2018-11-03T16:13:13.337Z,8.90
2018-11-03T16:15:40.897Z,8.70
2018-11-03T16:18:08.554Z,8.50
2018-11-03T16:20:36.378Z,8.40
2018-11-03T16:23:04.021Z,8.30
2018-11-03T16:25:31.928Z,8.30
2018-11-03T16:27:59.425Z,8.20
2018-11-03T16:30:26.950Z,8.10
2018-11-03T16:32:54.553Z,8.00
2018-11-03T16:35:22.139Z,7.90
2018-11-03T16:37:49.805Z,7.80
2018-11-03T16:40:18.516Z,7.70
2018-11-03T16:42:46.016Z,7.60
2018-11-03T16:45:15.841Z,7.40
2018-11-03T16:47:43.606Z,7.30
2018-11-03T16:50:12.093Z,7.30
2018-11-03T16:52:39.931Z,7.10
2018-11-03T16:55:08.102Z,7.10
2018-11-03T16:57:36.210Z,7.00
2018-11-03T17:00:04.838Z,6.90
2018-11-03T17:02:32.304Z,6.90
2018-11-03T17:04:59.877Z,6.70
2018-11-03T17:07:27.434Z,6.70
2018-11-03T17:09:55.059Z,6.60
2018-11-03T17:12:22.637Z,6.50
2018-11-03T17:14:50.103Z,6.40
2018-11-03T17:17:17.701Z,6.30
2018-11-03T17:19:45.262Z,6.30
2018-11-03T17:22:12.890Z,6.20
2018-11-03T17:24:40.392Z,6.10
2018-11-03T17:27:07.922Z,6.00
2018-11-03T17:29:35.480Z,5.90
2018-11-03T17:32:03.045Z,5.80
2018-11-03T17:34:30.576Z,5.80
2018-11-03T17:36:58.116Z,5.40
2018-11-03T17:39:25.615Z,5.30
2018-11-03T17:41:53.110Z,5.30
2018-11-03T17:44:20.637Z,5.30
2018-11-03T17:46:48.140Z,5.30
2018-11-03T17:49:15.638Z,5.30
2018-11-03T17:51:43.091Z,5.30
2018-11-03T17:54:10.606Z,5.30
2018-11-03T17:56:39.130Z,5.20
2018-11-03T17:59:06.637Z,5.20
2018-11-03T18:01:34.777Z,5.20
2018-11-03T18:04:02.254Z,5.10
2018-11-03T18:06:29.883Z,5.00
2018-11-03T18:08:57.394Z,4.90
2018-11-03T18:11:24.894Z,4.80
2018-11-03T18:13:52.772Z,4.80
2018-11-03T18:16:20.457Z,4.70
2018-11-03T18:18:47.943Z,4.70
2018-11-03T18:21:15.447Z,4.70
2018-11-03T18:23:43.015Z,4.70
2018-11-03T18:26:10.783Z,4.60
2018-11-03T18:28:38.305Z,4.60
2018-11-03T18:31:06.069Z,4.60
2018-11-03T18:33:33.653Z,4.60
2018-11-03T18:36:01.095Z,4.70
2018-11-03T18:38:28.703Z,4.70
2018-11-03T18:40:56.196Z,4.70
2018-11-03T18:43:23.769Z,4.60
2018-11-03T18:45:51.330Z,4.60
2018-11-03T18:48:18.953Z,4.60
2018-11-03T18:50:46.481Z,4.50
2018-11-03T18:53:13.983Z,4.50
2018-11-03T18:55:41.585Z,4.50
2018-11-03T18:58:09.135Z,4.50
2018-11-03T19:00:36.794Z,4.40
2018-11-03T19:03:04.412Z,4.40
2018-11-03T19:05:31.881Z,4.30
2018-11-03T19:07:59.340Z,4.20
2018-11-03T19:10:26.975Z,4.10
2018-11-03T19:12:54.665Z,4.10
2018-11-03T19:15:22.311Z,4.00
2018-11-03T19:17:49.845Z,4.10
2018-11-03T19:20:17.622Z,4.10
2018-11-03T19:22:45.235Z,3.90
2018-11-03T19:25:13.592Z,4.00
2018-11-03T19:27:41.339Z,3.90
2018-11-03T19:30:10.485Z,3.80
2018-11-03T19:32:38.849Z,3.80
2018-11-03T19:35:06.748Z,3.80
2018-11-03T19:37:34.238Z,3.80
2018-11-03T19:40:01.667Z,3.70
2018-11-03T19:42:29.450Z,3.70
2018-11-03T19:44:57.059Z,3.70
2018-11-03T19:47:24.577Z,3.60
2018-11-03T19:49:52.183Z,3.50
2018-11-03T19:52:19.720Z,3.50
2018-11-03T19:54:47.261Z,3.40
2018-11-03T19:57:14.820Z,3.50
2018-11-03T19:59:42.340Z,3.40
2018-11-03T20:02:09.974Z,3.30
2018-11-03T20:04:37.604Z,3.40
2018-11-03T20:07:05.291Z,3.40
2018-11-03T20:09:33.412Z,3.40
2018-11-03T20:12:01.051Z,3.40
2018-11-03T20:14:29.309Z,3.50
2018-11-03T20:16:56.907Z,3.50
2018-11-03T20:19:24.455Z,3.50
2018-11-03T20:21:51.992Z,3.40
2018-11-03T20:24:19.490Z,3.40
2018-11-03T20:26:46.980Z,3.40
2018-11-03T20:29:15.445Z,3.40
2018-11-03T20:31:44.330Z,3.30
2018-11-03T20:34:11.894Z,3.30
2018-11-03T20:36:39.768Z,3.40
2018-11-03T20:39:08.106Z,3.40
2018-11-03T20:41:35.748Z,3.50
2018-11-03T20:44:03.468Z,3.50
2018-11-03T20:46:30.952Z,3.50
2018-11-03T20:48:59.788Z,3.50
2018-11-03T20:51:27.237Z,3.60
2018-11-03T20:53:54.935Z,3.60
2018-11-03T20:56:23.041Z,3.60
2018-11-03T20:58:50.554Z,3.60
2018-11-03T21:01:18.230Z,3.60
2018-11-03T21:03:45.735Z,3.60
2018-11-03T21:06:13.399Z,3.50
2018-11-03T21:08:40.943Z,3.50
2018-11-03T21:11:08.370Z,3.50
2018-11-03T21:13:35.802Z,3.50
2018-11-03T21:16:03.271Z,3.40
2018-11-03T21:18:30.879Z,3.40
2018-11-03T21:20:58.514Z,3.40
2018-11-03T21:23:27.114Z,3.30
2018-11-03T21:25:54.550Z,3.30
2018-11-03T21:28:22.022Z,3.30
2018-11-03T21:30:49.540Z,3.30
2018-11-03T21:33:17.158Z,3.30
2018-11-03T21:35:44.601Z,3.30
2018-11-03T21:38:12.253Z,3.40
2018-11-03T21:40:39.945Z,3.30
2018-11-03T21:43:07.556Z,3.40
2018-11-03T21:45:35.108Z,3.40
2018-11-03T21:48:02.676Z,3.40
2018-11-03T21:50:30.175Z,3.40
2018-11-03T21:52:57.567Z,3.40
2018-11-03T21:56:28.603Z,3.50
2018-11-03T21:58:56.123Z,3.50
2018-11-03T22:01:23.657Z,3.60
2018-11-03T22:03:51.563Z,3.60
2018-11-03T22:06:19.223Z,3.60
2018-11-03T22:08:46.821Z,3.70
2018-11-03T22:11:14.342Z,3.70
2018-11-03T22:13:41.812Z,3.80
2018-11-03T22:16:09.274Z,3.90
2018-11-03T22:18:36.871Z,3.90
2018-11-03T22:21:04.551Z,4.00
2018-11-03T22:23:32.032Z,4.00
2018-11-03T22:26:00.530Z,4.00
2018-11-03T22:28:28.009Z,4.00
2018-11-03T22:30:55.613Z,4.10
2018-11-03T22:33:23.079Z,4.10
2018-11-03T22:35:50.608Z,4.10
2018-11-03T22:38:18.095Z,4.10
2018-11-03T22:40:45.552Z,4.10
2018-11-03T22:43:13.060Z,4.10
2018-11-03T22:45:40.554Z,4.10
2018-11-03T22:48:07.994Z,4.00
2018-11-03T22:50:35.827Z,4.00
2018-11-03T22:53:03.546Z,4.00
2018-11-03T22:55:31.109Z,3.90
2018-11-03T22:57:58.558Z,3.90
2018-11-03T23:00:26.099Z,3.90
2018-11-03T23:02:53.538Z,3.80
2018-11-03T23:05:21.068Z,3.80
2018-11-03T23:07:48.636Z,3.80
2018-11-03T23:10:16.078Z,3.70
2018-11-03T23:12:43.708Z,3.60
2018-11-03T23:15:11.166Z,3.50
2018-11-03T23:17:38.839Z,3.40
2018-11-03T23:20:09.175Z,3.20
2018-11-03T23:22:36.698Z,3.10
2018-11-03T23:25:04.496Z,3.10
2018-11-03T23:27:32.023Z,3.00
2018-11-03T23:29:59.713Z,2.90
2018-11-03T23:32:27.066Z,2.90
2018-11-03T23:34:54.565Z,2.90
2018-11-03T23:37:22.028Z,2.90
2018-11-03T23:39:49.498Z,2.80
2018-11-03T23:42:17.001Z,2.90
2018-11-03T23:44:44.528Z,2.90
2018-11-03T23:47:12.080Z,2.90
2018-11-03T23:49:39.650Z,3.00
2018-11-03T23:52:07.109Z,3.00
2018-11-03T23:54:34.562Z,3.10
2018-11-03T23:57:02.024Z,3.10
2018-11-03T23:59:29.568Z,3.10
